Time;durP1;ratioP1;P1;durP2;ratioP2;P2;SDS_P1;SDS_P2;PMS_P1;PMS_P2;Temp;Humidity;BMP_temperature;BMP_pressure;BME280_temperature;BME280_humidity;BME280_pressure;Samples;Min_cycle;Max_cycle;Signal;HPM_P1;HPM_P2
2022/10/20 00:01:58;;;;;;;6.32;5.72;;;;;;;8.93;81.76;98746.59;5022153;28;20037;-91
2022/10/20 00:04:25;;;;;;;6.80;5.80;;;;;;;8.79;80.77;98740.31;4995594;28;20036;-91
2022/10/20 00:06:50;;;;;;;9.02;6.50;;;;;;;8.68;81.17;98717.16;5017722;28;20064;-92
2022/10/20 00:09:18;;;;;;;6.88;6.18;;;;;;;8.76;81.84;98725.00;5006801;28;20046;-91
2022/10/20 00:11:44;;;;;;;7.05;6.35;;;;;;;8.88;80.76;98733.25;5028956;28;20481;-92
2022/10/20 00:14:11;;;;;;;8.75;6.35;;;;;;;8.81;81.08;98727.88;5030189;28;20109;-92
2022/10/20 00:16:38;;;;;;;7.25;6.20;;;;;;;8.70;80.87;98694.28;4993412;28;20496;-91
2022/10/20 00:19:07;;;;;;;8.10;5.65;;;;;;;8.82;81.77;98713.03;5026948;28;20026;-92
2022/10/20 00:21:33;;;;;;;9.38;6.13;;;;;;;8.67;81.20;98704.28;5016339;28;20117;-91
2022/10/20 00:24:00;;;;;;;9.38;5.93;;;;;;;8.61;81.38;98690.09;5009776;28;20126;-92
2022/10/20 00:26:34;;;;;;;7.85;6.82;;;;;;;8.68;82.22;98717.16;5013545;28;20499;-91
2022/10/20 00:29:03;;;;;;;10.00;6.60;;;;;;;8.62;81.87;98696.94;5024729;28;20619;-91
2022/10/20 00:31:31;;;;;;;7.18;6.47;;;;;;;8.47;81.17;98685.59;5022657;28;20124;-92
2022/10/20 00:33:57;;;;;;;9.65;6.28;;;;;;;8.60;81.58;98714.63;5030240;28;20040;-92
2022/10/20 00:36:25;;;;;;;7.90;6.10;;;;;;;8.47;81.97;98683.00;5033354;28;20030;-92
2022/10/20 00:38:59;;;;;;;8.18;6.05;;;;;;;8.55;82.04;98703.84;5035653;28;20776;-91
2022/10/20 00:41:25;;;;;;;8.80;6.63;;;;;;;8.47;82.99;98693.44;5029732;28;20033;-92
2022/10/20 00:44:00;;;;;;;8.15;6.68;;;;;;;8.42;81.60;98701.78;5014858;28;20046;-92
2022/10/20 00:46:37;;;;;;;10.70;5.88;;;;;;;8.44;82.80;98709.47;5030122;28;20029;-92
2022/10/20 00:49:22;;;;;;;6.53;5.93;;;;;;;8.29;82.96;98683.22;5033216;28;20428;-92
2022/10/20 00:51:54;;;;;;;9.05;6.70;;;;;;;8.32;80.71;98703.75;5032639;28;20040;-91
2022/10/20 00:54:28;;;;;;;9.63;6.65;;;;;;;8.16;82.13;98696.81;5012626;28;20030;-91
2022/10/20 00:57:01;;;;;;;9.10;6.30;;;;;;;8.15;81.85;98703.00;4996770;28;20160;-92
2022/10/20 00:59:34;;;;;;;8.57;6.68;;;;;;;8.23;82.48;98716.06;5022460;28;20029;-92
2022/10/20 01:02:05;;;;;;;10.63;7.00;;;;;;;8.25;82.13;98706.25;5028811;28;20022;-91
2022/10/20 01:04:38;;;;;;;9.30;7.50;;;;;;;8.18;81.28;98694.03;5017695;28;20033;-92
2022/10/20 01:07:15;;;;;;;9.07;7.43;;;;;;;8.11;81.89;98675.59;5013712;28;20033;-92
2022/10/20 01:09:41;;;;;;;17.27;7.50;;;;;;;8.27;81.87;98672.09;5020413;28;20112;-92
2022/10/20 01:12:34;;;;;;;7.93;7.13;;;;;;;8.38;81.61;98690.03;5032397;28;20495;-92
2022/10/20 01:15:44;;;;;;;7.55;6.75;;;;;;;8.29;81.47;98691.84;5047638;28;20507;-91
2022/10/20 01:19:08;;;;;;;10.73;7.25;;;;;;;8.20;82.26;98676.38;5048622;28;20558;-91
2022/10/20 01:22:07;;;;;;;8.93;7.32;;;;;;;8.21;82.59;98678.00;5005352;28;20429;-92
2022/10/20 01:25:06;;;;;;;10.68;7.78;;;;;;;8.24;81.51;98677.66;5012722;28;20052;-91
2022/10/20 01:27:51;;;;;;;8.18;6.55;;;;;;;8.19;81.41;98680.78;5018123;28;20024;-91
2022/10/20 01:30:28;;;;;;;10.15;7.20;;;;;;;8.09;81.57;98674.94;5028548;28;20038;-92
2022/10/20 01:33:16;;;;;;;10.73;7.07;;;;;;;8.29;82.78;98681.41;5014244;28;20051;-92
2022/10/20 01:36:19;;;;;;;10.75;7.38;;;;;;;8.31;82.26;98676.81;5029010;28;20156;-91
2022/10/20 01:39:00;;;;;;;8.48;7.47;;;;;;;8.31;82.40;98681.22;5012335;28;20701;-92
2022/10/20 01:41:50;;;;;;;9.27;7.80;;;;;;;8.16;81.23;98665.47;5012655;28;20065;-92
2022/10/20 01:44:31;;;;;;;11.50;8.05;;;;;;;8.20;81.05;98674.56;5013639;28;20104;-92
2022/10/20 01:47:01;;;;;;;9.43;7.97;;;;;;;8.11;82.08;98662.53;5029027;28;20030;-91
2022/10/20 01:49:27;;;;;;;9.18;7.25;;;;;;;8.27;82.02;98683.34;5012298;28;20390;-92
2022/10/20 01:51:54;;;;;;;11.38;7.68;;;;;;;8.07;82.61;98650.78;5012982;28;20033;-92
2022/10/20 01:54:29;;;;;;;10.45;7.60;;;;;;;8.15;82.08;98663.81;5011757;28;20030;-91
2022/10/20 01:57:26;;;;;;;8.38;7.43;;;;;;;8.19;80.89;98667.72;5012113;28;20116;-91
2022/10/20 02:00:07;;;;;;;10.10;8.18;;;;;;;8.18;82.31;98660.88;5011643;28;20034;-92
2022/10/20 02:03:18;;;;;;;8.27;7.40;;;;;;;8.15;82.17;98650.75;5020919;28;20032;-91
2022/10/20 02:06:10;;;;;;;;;;;;;;;8.19;82.88;98646.81;5012225;28;20034;-92
2022/10/20 02:08:47;;;;;;;;;;;;;;;8.21;82.66;98638.81;5021952;28;19912;-92
2022/10/20 02:11:27;;;;;;;8.55;6.95;;;;;;;8.22;81.93;98636.03;5029573;28;19913;-92
2022/10/20 02:13:59;;;;;;;9.23;7.57;;;;;;;8.02;82.12;98626.97;5023768;28;20030;-91
2022/10/20 02:16:41;;;;;;;8.95;7.38;;;;;;;8.11;82.49;98625.97;5014271;28;20280;-91
2022/10/20 02:19:14;;;;;;;9.35;7.57;;;;;;;7.93;81.40;98607.94;5047566;28;20064;-92
2022/10/20 02:21:46;;;;;;;10.93;7.22;;;;;;;7.95;82.90;98599.91;5031191;28;20040;-92
2022/10/20 02:24:16;;;;;;;9.82;7.18;;;;;;;8.09;82.16;98617.47;5017670;28;20397;-92
2022/10/20 02:26:50;;;;;;;12.17;7.53;;;;;;;7.88;82.14;98606.81;5017426;28;20040;-91
2022/10/20 02:29:26;;;;;;;10.23;7.40;;;;;;;7.87;82.66;98607.78;5032055;28;20264;-92
2022/10/20 02:32:43;;;;;;;9.27;7.40;;;;;;;7.71;82.70;98580.75;5019616;28;20033;-91
2022/10/20 02:35:58;;;;;;;12.18;7.70;;;;;;;7.77;83.18;98593.13;5013383;28;20379;-91
2022/10/20 02:38:59;;;;;;;8.18;7.10;;;;;;;7.96;82.77;98623.25;4994890;28;20228;-92
2022/10/20 02:42:20;;;;;;;11.88;7.90;;;;;;;7.92;83.39;98600.28;5009275;28;20115;-91
2022/10/20 02:45:30;;;;;;;9.93;8.05;;;;;;;7.86;81.73;98603.56;4992938;28;20100;-92
2022/10/20 02:52:47;;;;;;;10.20;7.30;;;;;;;7.88;81.06;98594.56;4984349;28;20046;-92
2022/10/20 02:55:32;;;;;;;10.15;7.13;;;;;;;7.96;81.94;98611.97;5004815;28;20083;-91
2022/10/20 02:58:08;;;;;;;10.32;7.10;;;;;;;7.84;81.53;98597.66;5010013;28;20042;-91
2022/10/20 03:00:44;;;;;;;;;;;;;;;;;;;;;
2022/10/20 03:03:09;;;;;;;10.75;7.78;;;;;;;7.71;82.82;98599.03;5005232;28;20037;-92
2022/10/20 03:05:46;;;;;;;10.00;7.60;;;;;;;7.72;82.15;98592.00;5020073;28;20033;-92
2022/10/20 03:08:13;;;;;;;10.20;7.45;;;;;;;7.89;82.16;98605.81;5016618;28;20461;-91
2022/10/20 03:10:40;;;;;;;10.32;7.35;;;;;;;7.72;81.50;98579.75;5011737;28;20087;-92
2022/10/20 03:13:24;;;;;;;11.50;7.30;;;;;;;7.78;81.89;98594.75;5028845;28;20421;-91
2022/10/20 03:15:52;;;;;;;10.85;7.57;;;;;;;7.87;82.28;98610.41;5011252;28;20034;-92
2022/10/20 03:18:23;;;;;;;10.50;7.78;;;;;;;7.76;82.66;98601.94;5017663;28;20029;-92
2022/10/20 03:20:53;;;;;;;9.80;7.70;;;;;;;7.88;82.71;98606.81;5005414;28;20041;-91
2022/10/20 03:23:23;;;;;;;9.98;7.28;;;;;;;7.67;81.89;98581.25;5022216;28;20034;-91
2022/10/20 03:25:54;;;;;;;11.10;7.40;;;;;;;7.71;81.36;98593.81;5015490;28;20084;-92
2022/10/20 03:28:24;;;;;;;;;;;;;;;7.84;82.13;98613.34;5030363;28;20845;-91
2022/10/20 03:30:57;;;;;;;9.23;7.15;;;;;;;7.78;82.81;98604.38;5029985;28;19909;-91
2022/10/20 03:33:28;;;;;;;10.95;7.50;;;;;;;7.77;82.75;98607.97;5046851;28;20036;-92
2022/10/20 03:35:58;;;;;;;12.93;7.50;;;;;;;7.73;81.63;98597.03;5047175;28;20609;-92
2022/10/20 03:38:31;;;;;;;8.02;6.82;;;;;;;7.69;82.67;98593.16;5046758;28;20370;-91
2022/10/20 03:41:00;;;;;;;9.98;7.43;;;;;;;7.55;82.54;98572.97;5022583;28;20112;-91
2022/10/20 03:43:28;;;;;;;9.60;7.32;;;;;;;7.68;82.99;98596.75;5030034;28;20129;-92
2022/10/20 03:46:06;;;;;;;7.95;7.15;;;;;;;7.67;81.57;98595.13;5010682;28;20034;-92
2022/10/20 03:48:32;;;;;;;10.50;6.88;;;;;;;7.62;82.46;98594.84;5011629;28;20030;-92
2022/10/20 03:51:00;;;;;;;10.82;7.55;;;;;;;7.65;82.27;98594.47;5021828;28;20117;-92
2022/10/20 03:53:27;;;;;;;9.68;7.05;;;;;;;7.76;83.36;98596.72;5031376;28;20041;-91
2022/10/20 03:56:00;;;;;;;9.98;7.28;;;;;;;7.66;82.77;98585.66;5030817;28;20022;-91
2022/10/20 03:58:28;;;;;;;8.57;7.40;;;;;;;7.58;82.05;98572.66;5027839;28;20091;-92
2022/10/20 04:00:54;;;;;;;9.27;7.88;;;;;;;7.63;81.96;98583.41;5028480;28;20037;-91
2022/10/20 04:03:29;;;;;;;7.97;7.07;;;;;;;7.77;82.17;98598.34;5028796;28;20481;-91
2022/10/20 04:05:57;;;;;;;10.65;6.85;;;;;;;7.62;82.16;98581.78;5013475;28;20030;-91
2022/10/20 04:08:25;;;;;;;11.15;7.68;;;;;;;7.71;82.50;98593.81;5033032;28;20547;-92
2022/10/20 04:10:53;;;;;;;11.07;7.15;;;;;;;7.63;83.20;98569.53;5027613;28;20436;-91
2022/10/20 04:13:21;;;;;;;12.43;7.68;;;;;;;7.46;82.27;98558.34;5017261;28;20038;-92
2022/10/20 04:15:47;;;;;;;8.57;7.15;;;;;;;7.50;82.30;98570.06;5014120;28;20034;-91
2022/10/20 04:18:15;;;;;;;10.30;7.13;;;;;;;7.40;82.98;98569.44;5029413;28;20738;-91
2022/10/20 04:20:43;;;;;;;8.32;7.13;;;;;;;7.58;82.94;98596.13;5014196;28;20392;-91
2022/10/20 04:23:13;;;;;;;9.77;7.50;;;;;;;7.51;82.99;98577.72;5033361;28;20040;-92
2022/10/20 04:25:48;;;;;;;12.07;7.80;;;;;;;7.59;82.67;98579.50;5030554;28;20064;-90
2022/10/20 04:28:20;;;;;;;10.93;8.07;;;;;;;7.66;82.60;98570.00;5012913;28;20042;-92
2022/10/20 04:30:48;;;;;;;9.93;7.25;;;;;;;7.50;83.02;98559.63;5013227;28;20577;-91
2022/10/20 04:33:15;;;;;;;8.40;7.38;;;;;;;7.52;82.88;98581.16;5013045;28;20061;-91
2022/10/20 04:35:49;;;;;;;8.80;7.45;;;;;;;7.49;83.40;98568.41;5029732;28;20069;-91
2022/10/20 04:38:17;;;;;;;9.85;7.35;;;;;;;7.42;82.68;98554.41;5013788;28;20030;-91
2022/10/20 04:40:54;;;;;;;9.55;7.28;;;;;;;7.44;82.77;98560.31;5014459;28;20041;-91
2022/10/20 04:43:21;;;;;;;10.57;7.28;;;;;;;7.49;83.42;98565.81;5014383;28;20041;-91
2022/10/20 04:45:57;;;;;;;9.45;7.97;;;;;;;7.45;82.15;98564.53;5029505;28;20029;-91
2022/10/20 04:48:25;;;;;;;10.38;7.55;;;;;;;7.50;82.76;98575.28;5014211;28;20105;-92
2022/10/20 04:51:02;;;;;;;10.55;7.88;;;;;;;7.45;81.83;98560.13;5022186;28;20069;-91
2022/10/20 04:53:28;;;;;;;9.38;7.65;;;;;;;7.47;82.63;98555.53;4996678;28;20413;-91
2022/10/20 04:55:57;;;;;;;11.05;7.93;;;;;;;7.51;82.54;98562.06;5013485;28;20038;-91
2022/10/20 04:58:26;;;;;;;9.75;7.78;;;;;;;7.26;81.19;98552.69;5028977;28;20033;-91
2022/10/20 05:01:01;;;;;;;7.85;7.03;;;;;;;7.17;82.39;98536.22;5014132;28;20116;-91
2022/10/20 05:03:30;;;;;;;9.40;7.57;;;;;;;7.39;83.96;98546.94;5037695;28;20107;-91
2022/10/20 05:06:12;;;;;;;11.30;7.75;;;;;;;7.26;82.36;98534.44;4997180;28;20069;-92
2022/10/20 05:08:45;;;;;;;10.63;7.75;;;;;;;7.38;83.18;98542.72;5013052;28;20033;-90
2022/10/20 05:11:12;;;;;;;13.48;7.70;;;;;;;7.36;83.15;98542.84;5014807;28;20401;-92
2022/10/20 05:13:40;;;;;;;13.45;8.18;;;;;;;7.20;82.93;98528.09;5032064;28;20033;-91
2022/10/20 05:16:06;;;;;;;9.70;8.18;;;;;;;7.18;84.05;98535.25;5034294;28;20163;-92
2022/10/20 05:18:34;;;;;;;9.77;7.55;;;;;;;7.06;83.70;98510.50;5034620;28;20033;-92
2022/10/20 05:21:13;;;;;;;14.20;8.15;;;;;;;7.33;84.76;98542.41;5032333;28;20610;-92
2022/10/20 05:23:45;;;;;;;8.70;7.32;;;;;;;7.20;83.41;98517.66;5014496;28;20034;-91
2022/10/20 05:26:17;;;;;;;9.90;8.15;;;;;;;7.30;83.85;98534.88;5014310;28;20033;-91
2022/10/20 05:28:52;;;;;;;11.02;7.75;;;;;;;7.09;84.49;98499.75;5013638;28;20033;-92
2022/10/20 05:31:22;;;;;;;9.70;7.55;;;;;;;7.11;84.47;98502.97;5023097;28;20030;-91
2022/10/20 05:34:11;;;;;;;10.15;7.32;;;;;;;7.17;83.90;98511.94;5032948;28;20089;-91
2022/10/20 05:36:38;;;;;;;12.35;7.75;;;;;;;7.15;84.40;98524.34;5049102;28;20397;-91
2022/10/20 05:39:09;;;;;;;9.30;7.45;;;;;;;7.16;84.22;98524.16;5028284;28;20034;-91
2022/10/20 05:41:58;;;;;;;11.73;7.75;;;;;;;7.20;84.92;98532.50;5013643;28;20413;-92
2022/10/20 05:44:43;;;;;;;11.48;8.88;;;;;;;7.24;83.82;98539.78;5022043;28;20037;-91
2022/10/20 05:47:09;;;;;;;11.18;8.00;;;;;;;7.34;84.03;98550.06;5032335;28;20641;-91
2022/10/20 05:49:35;;;;;;;9.82;7.65;;;;;;;7.30;84.70;98537.50;5014631;28;20124;-91
2022/10/20 05:52:02;;;;;;;10.77;7.90;;;;;;;7.22;83.49;98520.91;5019561;28;20101;-91
2022/10/20 05:54:28;;;;;;;11.35;8.40;;;;;;;7.25;82.92;98504.06;5021700;28;20433;-90
2022/10/20 05:56:53;;;;;;;11.98;8.05;;;;;;;7.34;83.43;98517.94;5030920;28;20030;-90
2022/10/20 05:59:19;;;;;;;9.73;7.80;;;;;;;7.25;83.55;98504.88;5023313;28;20033;-92
2022/10/20 06:01:47;;;;;;;10.32;8.13;;;;;;;7.24;82.96;98529.34;5019496;28;20388;-92
2022/10/20 06:04:22;;;;;;;9.32;7.70;;;;;;;7.13;82.48;98516.66;5022197;28;20037;-91
2022/10/20 06:06:58;;;;;;;14.40;7.30;;;;;;;7.08;82.77;98495.50;5020781;28;20037;-92
2022/10/20 06:09:26;;;;;;;10.73;7.68;;;;;;;7.21;82.90;98508.03;5025594;28;20535;-92
2022/10/20 06:12:10;;;;;;;8.68;7.35;;;;;;;6.97;82.60;98486.25;5020174;28;20052;-91
2022/10/20 06:14:57;;;;;;;16.45;8.10;;;;;;;7.00;82.75;98499.91;5015497;28;20048;-91
2022/10/20 06:17:47;;;;;;;12.30;8.63;;;;;;;7.13;84.02;98501.00;5046836;28;20120;-92
2022/10/20 06:20:23;;;;;;;13.07;8.07;;;;;;;7.17;83.13;98497.09;5031962;28;20033;-91
2022/10/20 06:22:49;;;;;;;12.80;8.48;;;;;;;7.16;82.36;98495.47;5033048;28;20041;-92
2022/10/20 06:25:17;;;;;;;11.40;8.40;;;;;;;7.18;83.18;98496.13;5031958;28;20037;-93
2022/10/20 06:27:47;;;;;;;13.23;8.13;;;;;;;7.30;84.04;98517.44;5037894;28;20081;-92
2022/10/20 06:30:26;;;;;;;12.30;8.48;;;;;;;7.33;84.37;98493.63;5012104;28;20095;-92
2022/10/20 06:32:54;;;;;;;13.25;8.18;;;;;;;7.53;82.64;98516.72;4996687;28;20025;-93
2022/10/20 06:35:20;;;;;;;12.98;8.52;;;;;;;7.57;81.77;98520.63;5012229;28;20029;-92
2022/10/20 06:37:46;;;;;;;10.80;8.68;;;;;;;7.45;81.99;98494.06;4997723;28;20036;-92
2022/10/20 06:40:18;;;;;;;11.98;7.88;;;;;;;7.54;82.60;98503.47;5014498;28;20042;-92
2022/10/20 06:42:46;;;;;;;16.00;8.80;;;;;;;7.61;82.49;98493.16;5012581;28;20124;-91
2022/10/20 06:45:17;;;;;;;11.40;8.70;;;;;;;7.73;81.10;98497.03;5013693;28;20033;-92
2022/10/20 06:47:43;;;;;;;9.48;7.55;;;;;;;7.75;80.80;98488.06;5012344;28;20034;-91
2022/10/20 06:50:13;;;;;;;13.40;8.30;;;;;;;7.88;81.26;98499.72;5013597;28;20030;-91
2022/10/20 06:52:41;;;;;;;9.88;7.72;;;;;;;7.83;81.33;98491.59;5012225;28;20065;-91
2022/10/20 06:55:07;;;;;;;14.95;8.18;;;;;;;7.93;82.45;98493.00;5011900;28;20030;-91
2022/10/20 06:57:38;;;;;;;10.60;8.02;;;;;;;8.11;81.97;98516.25;5011999;28;20030;-91
2022/10/20 07:00:10;;;;;;;;;;;;;;;8.32;80.70;98519.00;5017037;28;20056;-92
2022/10/20 07:02:41;;;;;;;14.15;9.30;;;;;;;8.33;78.25;98515.41;5012986;28;19909;-92
2022/10/20 07:05:07;;;;;;;13.98;9.90;;;;;;;8.34;79.80;98492.72;5031422;28;20564;-91
2022/10/20 07:07:41;;;;;;;14.63;10.50;;;;;;;8.51;79.23;98491.59;5032884;28;20033;-92
2022/10/20 07:10:07;;;;;;;9.05;7.90;;;;;;;8.73;78.16;98502.22;5030727;28;20440;-93
2022/10/20 07:12:58;;;;;;;11.40;8.57;;;;;;;8.73;77.85;98492.56;5019756;28;20500;-90
2022/10/20 07:15:52;;;;;;;11.30;8.10;;;;;;;8.81;78.47;98495.09;5032589;28;20060;-91
2022/10/20 07:18:37;;;;;;;10.60;8.10;;;;;;;8.94;78.72;98509.38;5031819;28;20052;-91
2022/10/20 07:21:28;;;;;;;10.70;7.53;;;;;;;9.04;76.75;98507.31;5027824;28;20149;-91
2022/10/20 07:23:56;;;;;;;9.98;7.25;;;;;;;8.94;76.65;98493.69;5012128;28;20477;-91
2022/10/20 07:26:26;;;;;;;9.63;7.65;;;;;;;8.94;77.26;98491.06;5028878;28;20040;-92
2022/10/20 07:28:56;;;;;;;11.93;8.35;;;;;;;9.15;77.16;98488.53;5030768;28;20473;-90
2022/10/20 07:31:25;;;;;;;12.40;7.50;;;;;;;9.22;76.94;98486.81;5018501;28;20042;-90
2022/10/20 07:33:59;;;;;;;10.32;7.68;;;;;;;9.09;76.31;98465.72;5020288;28;20026;-89
2022/10/20 07:36:31;;;;;;;13.32;8.00;;;;;;;9.18;77.51;98472.50;5018383;28;20030;-90
2022/10/20 07:38:59;;;;;;;;;;;;;;;9.48;77.33;98501.28;5011611;28;20143;-91
2022/10/20 07:41:29;;;;;;;13.98;8.18;;;;;;;9.50;76.34;98491.41;5012615;28;19916;-92
2022/10/20 07:43:56;;;;;;;9.73;8.00;;;;;;;9.76;77.07;98502.19;5011230;28;20050;-92
2022/10/20 07:46:23;;;;;;;9.30;7.75;;;;;;;9.74;75.90;98488.47;5011208;28;20452;-91
2022/10/20 07:48:51;;;;;;;11.30;7.53;;;;;;;9.80;75.82;98456.31;5027848;28;20041;-90
2022/10/20 07:51:27;;;;;;;8.88;7.93;;;;;;;10.11;75.35;98491.88;5012201;28;20036;-92
2022/10/20 07:53:59;;;;;;;9.93;8.30;;;;;;;10.11;74.59;98452.56;4995138;28;20032;-93
2022/10/20 07:56:35;;;;;;;11.32;8.48;;;;;;;10.38;75.06;98464.16;5028653;28;20040;-91
2022/10/20 07:59:03;;;;;;;11.45;7.95;;;;;;;10.59;73.54;98487.69;5032638;28;20051;-93
2022/10/20 08:01:30;;;;;;;10.88;8.10;;;;;;;10.53;73.54;98480.59;5033483;28;20037;-92
2022/10/20 08:03:56;;;;;;;10.30;8.07;;;;;;;10.64;74.33;98485.31;5049888;28;20084;-93
2022/10/20 08:06:24;;;;;;;11.80;7.25;;;;;;;10.56;73.46;98446.13;5032098;28;20059;-92
2022/10/20 08:11:37;;;;;;;10.60;7.82;;;;;;;10.84;72.57;98464.47;5036723;28;20044;-92
2022/10/20 08:14:03;;;;;;;9.55;7.35;;;;;;;11.09;71.42;98467.44;5012733;28;20401;-92
2022/10/20 08:16:33;;;;;;;9.07;8.15;;;;;;;11.21;70.95;98459.81;5013348;28;20029;-91
2022/10/20 08:19:01;;;;;;;9.73;7.45;;;;;;;11.16;70.95;98444.69;5032236;28;20119;-88
2022/10/20 08:21:36;;;;;;;12.50;8.13;;;;;;;11.11;71.05;98447.06;5010030;28;20469;-92
2022/10/20 08:24:02;;;;;;;8.43;6.20;;;;;;;10.98;70.19;98429.44;5030232;28;20034;-92
2022/10/20 08:26:28;;;;;;;14.73;7.47;;;;;;;11.00;70.61;98431.88;5015187;28;20034;-91
2022/10/20 08:28:54;;;;;;;11.32;8.23;;;;;;;11.01;71.27;98412.50;5023816;28;20038;-92
2022/10/20 08:31:21;;;;;;;10.60;7.95;;;;;;;11.28;70.73;98433.63;5028218;28;20036;-92
2022/10/20 08:33:49;;;;;;;10.32;7.50;;;;;;;11.19;70.11;98414.59;5030940;28;20117;-90
2022/10/20 08:36:20;;;;;;;;;;;;;;;11.59;70.92;98446.25;5031299;28;20089;-91
2022/10/20 08:41:01;;;;;;;10.32;7.47;;;;;;;11.73;70.67;98427.69;5076303;27;20131;-90
2022/10/20 08:43:34;;;;;;;9.93;7.30;;;;;;;11.64;68.91;98425.47;5028784;28;20502;-91
2022/10/20 08:46:03;;;;;;;9.60;7.47;;;;;;;11.78;70.81;98435.00;5047179;28;20041;-91
2022/10/20 08:48:33;;;;;;;10.98;7.97;;;;;;;11.88;70.56;98424.13;5057176;28;20040;-92
2022/10/20 08:51:01;;;;;;;8.23;6.80;;;;;;;12.03;68.65;98449.22;5041743;28;20060;-90
2022/10/20 08:53:31;;;;;;;10.95;6.75;;;;;;;11.97;67.61;98439.50;5064962;28;20109;-90
2022/10/20 08:55:58;;;;;;;10.50;6.63;;;;;;;12.14;68.60;98433.88;5066223;28;20032;-91
2022/10/20 08:58:26;;;;;;;9.13;6.90;;;;;;;12.13;67.73;98433.06;5065175;28;20030;-92
2022/10/20 09:01:00;;;;;;;9.27;6.80;;;;;;;12.26;67.93;98419.09;5066748;28;20040;-91
2022/10/20 09:03:31;;;;;;;9.00;6.68;;;;;;;12.31;68.71;98425.38;5083626;28;20190;-91
2022/10/20 09:06:15;;;;;;;8.60;6.47;;;;;;;12.46;67.35;98424.34;5066858;28;20033;-91
2022/10/20 09:08:45;;;;;;;12.05;6.85;;;;;;;12.30;66.54;98392.22;5066572;28;20035;-89
2022/10/20 09:11:22;;;;;;;9.13;6.07;;;;;;;12.42;66.73;98423.97;5066641;28;20025;-91
2022/10/20 09:13:52;;;;;;;9.07;7.47;;;;;;;12.56;67.48;98411.59;5062054;28;20785;-91
2022/10/20 09:16:37;;;;;;;10.88;7.20;;;;;;;12.71;66.89;98408.75;5046554;28;20119;-91
2022/10/20 09:19:10;;;;;;;10.48;7.15;;;;;;;12.84;66.91;98414.00;5066976;28;20032;-91
2022/10/20 09:21:39;;;;;;;10.43;7.25;;;;;;;12.79;66.30;98395.38;5067035;28;20036;-91
2022/10/20 09:24:08;;;;;;;12.77;7.30;;;;;;;12.87;67.13;98376.72;5063328;28;20103;-89
2022/10/20 09:26:41;;;;;;;10.30;7.25;;;;;;;13.09;67.68;98400.97;5033650;28;20051;-90
2022/10/20 09:29:14;;;;;;;8.43;7.45;;;;;;;12.98;64.67;98378.72;5055734;28;20387;-91
2022/10/20 09:31:44;;;;;;;8.77;6.72;;;;;;;13.21;66.45;98401.16;5050842;28;20036;-93
2022/10/20 09:34:32;;;;;;;8.82;6.78;;;;;;;13.32;65.61;98389.97;5047949;28;20083;-90
2022/10/20 09:37:24;;;;;;;8.43;6.43;;;;;;;13.30;64.75;98363.00;5043949;28;20045;-90
2022/10/20 09:40:22;;;;;;;9.13;6.60;;;;;;;13.41;65.51;98382.63;5065967;28;20047;-89
2022/10/20 09:43:17;;;;;;;11.00;7.20;;;;;;;13.41;65.34;98388.69;5067610;28;20396;-91
2022/10/20 09:46:02;;;;;;;9.82;6.80;;;;;;;13.53;66.11;98392.28;5063994;28;20029;-90
2022/10/20 09:48:34;;;;;;;9.40;6.78;;;;;;;13.43;65.03;98401.66;5067040;28;20028;-92
2022/10/20 09:51:01;;;;;;;8.48;7.35;;;;;;;13.54;65.42;98393.88;5061271;28;20116;-91
2022/10/20 09:53:39;;;;;;;8.10;6.30;;;;;;;13.48;64.73;98360.47;5053284;28;20036;-91
2022/10/20 09:56:05;;;;;;;8.85;6.70;;;;;;;13.55;64.69;98363.06;5046969;28;20029;-91
2022/10/20 09:58:41;;;;;;;7.88;5.70;;;;;;;13.52;64.59;98374.03;5036100;28;20082;-91
2022/10/20 10:01:16;;;;;;;9.80;6.60;;;;;;;13.70;64.17;98373.34;5050202;28;20514;-91
2022/10/20 10:03:55;;;;;;;8.48;5.97;;;;;;;13.64;64.94;98341.53;5053037;28;20051;-91
2022/10/20 10:06:36;;;;;;;9.00;6.22;;;;;;;14.06;64.13;98368.19;5054479;28;20029;-91
2022/10/20 10:09:21;;;;;;;;;;;;;;;14.19;63.31;98369.91;5054121;28;20032;-92
2022/10/20 10:12:10;;;;;;;7.97;6.38;;;;;;;14.37;62.90;98372.59;5051991;28;19945;-93
2022/10/20 10:14:53;;;;;;;9.02;5.75;;;;;;;14.34;61.88;98346.66;5052530;28;20064;-89
2022/10/20 10:17:39;;;;;;;10.10;7.15;;;;;;;14.45;60.48;98368.88;5052890;28;20029;-93
2022/10/20 10:20:45;;;;;;;7.55;6.25;;;;;;;14.35;61.48;98339.56;5044979;28;20057;-91
2022/10/20 10:23:29;;;;;;;7.93;5.97;;;;;;;14.70;63.61;98361.75;5036647;28;20025;-91
2022/10/20 10:25:56;;;;;;;8.45;6.13;;;;;;;14.80;61.75;98366.50;5048808;28;20045;-90
2022/10/20 10:28:27;;;;;;;9.15;6.50;;;;;;;14.96;61.00;98355.38;5052680;28;20060;-92
2022/10/20 10:31:16;;;;;;;9.75;6.10;;;;;;;15.04;61.13;98350.81;5047909;28;20036;-90
2022/10/20 10:33:44;;;;;;;7.30;5.78;;;;;;;14.90;61.06;98363.38;5051507;28;20029;-91
2022/10/20 10:36:35;;;;;;;9.23;6.10;;;;;;;14.85;61.77;98337.63;5051927;28;20120;-91
2022/10/20 10:39:10;;;;;;;7.60;6.13;;;;;;;14.99;59.87;98344.38;5032785;28;20121;-90
2022/10/20 10:42:25;;;;;;;7.97;6.13;;;;;;;15.01;61.86;98328.31;5042074;28;20029;-89
2022/10/20 10:45:18;;;;;;;8.00;6.22;;;;;;;15.03;61.07;98320.94;5041793;28;20509;-90
2022/10/20 10:48:27;;;;;;;7.07;5.70;;;;;;;15.34;61.19;98329.69;5049349;28;20033;-92
2022/10/20 10:51:02;;;;;;;15.18;5.97;;;;;;;15.29;59.99;98319.78;5046114;28;20021;-91
2022/10/20 10:54:24;;;;;;;6.78;5.55;;;;;;;15.44;60.62;98319.41;5044137;28;20053;-92
2022/10/20 10:57:21;;;;;;;6.90;5.38;;;;;;;15.47;60.04;98309.19;5047778;28;20025;-89
2022/10/20 10:59:53;;;;;;;6.18;5.50;;;;;;;15.45;60.34;98297.22;5050373;28;20082;-92
2022/10/20 11:02:40;;;;;;;6.97;5.07;;;;;;;15.45;60.29;98308.59;5034604;28;20033;-90
2022/10/20 11:05:50;;;;;;;6.40;5.72;;;;;;;15.53;60.15;98302.16;5041242;28;20029;-90
2022/10/20 11:08:18;;;;;;;7.25;5.03;;;;;;;15.62;61.02;98323.81;5050168;28;20052;-91
2022/10/20 11:11:00;;;;;;;7.07;5.53;;;;;;;15.51;59.46;98325.38;5047654;28;20028;-92
2022/10/20 11:14:03;;;;;;;5.85;5.35;;;;;;;15.33;59.75;98326.25;5031401;28;20048;-92
2022/10/20 11:16:39;;;;;;;7.65;5.18;;;;;;;15.32;60.23;98321.19;5049183;28;20029;-92
2022/10/20 11:19:49;;;;;;;6.53;4.82;;;;;;;15.37;61.37;98319.50;5047620;28;20044;-94
2022/10/20 11:23:11;;;;;;;6.55;5.28;;;;;;;15.42;61.27;98324.13;5009904;28;20781;-90
2022/10/20 11:25:55;;;;;;;6.18;5.50;;;;;;;15.35;60.59;98326.00;5047550;28;20442;-90
2022/10/20 11:28:42;;;;;;;6.15;5.07;;;;;;;15.54;61.20;98324.94;5051831;28;20040;-90
2022/10/20 11:31:25;;;;;;;5.68;4.50;;;;;;;15.79;61.35;98327.44;5031113;28;20653;-91
2022/10/20 11:34:18;;;;;;;6.40;5.00;;;;;;;16.15;61.01;98326.47;5041365;28;20037;-90
2022/10/20 11:36:53;;;;;;;5.65;4.85;;;;;;;16.40;60.35;98296.31;5046390;28;20090;-91
2022/10/20 11:39:41;;;;;;;5.22;4.68;;;;;;;16.38;58.43;98293.09;5041034;28;20140;-92
2022/10/20 11:42:26;;;;;;;6.15;4.68;;;;;;;16.44;59.33;98292.97;5051907;28;20391;-90
2022/10/20 11:44:58;;;;;;;4.75;4.25;;;;;;;16.50;58.41;98284.09;5051688;28;20083;-91
2022/10/20 11:47:40;;;;;;;5.07;4.57;;;;;;;16.46;59.72;98256.47;5052224;28;20025;-90
2022/10/20 11:50:10;;;;;;;5.28;4.20;;;;;;;16.52;56.93;98273.25;5052616;28;20033;-92
2022/10/20 11:53:12;;;;;;;5.73;4.80;;;;;;;16.68;57.80;98277.84;5052752;28;20087;-93
2022/10/20 11:56:07;;;;;;;8.30;4.53;;;;;;;16.77;57.65;98265.84;5050624;28;20025;-92
2022/10/20 11:58:55;;;;;;;5.72;4.43;;;;;;;16.74;58.52;98255.75;5030919;28;20397;-91
2022/10/20 12:02:10;;;;;;;5.87;4.33;;;;;;;16.91;58.51;98260.28;5037131;28;20028;-92
2022/10/20 12:05:35;;;;;;;5.97;4.18;;;;;;;16.95;58.13;98254.28;5040182;28;20276;-91
2022/10/20 12:08:36;;;;;;;4.60;4.20;;;;;;;17.00;57.03;98264.16;5029122;28;20025;-92
2022/10/20 12:11:36;;;;;;;5.10;4.60;;;;;;;16.94;58.32;98260.63;5007362;28;20042;-91
2022/10/20 12:14:17;;;;;;;5.40;4.35;;;;;;;17.01;58.34;98244.56;5051061;28;20037;-92
2022/10/20 12:16:57;;;;;;;4.95;4.45;;;;;;;17.23;58.33;98248.16;5049715;28;20087;-92
2022/10/20 12:19:34;;;;;;;5.85;4.13;;;;;;;17.27;56.24;98249.31;5066536;28;20033;-92
2022/10/20 12:22:15;;;;;;;5.97;4.40;;;;;;;17.49;56.93;98262.66;5037477;28;20030;-91
2022/10/20 12:24:52;;;;;;;4.18;3.83;;;;;;;17.61;57.20;98267.88;5031768;28;20052;-91
2022/10/20 12:27:29;;;;;;;5.65;4.00;;;;;;;17.58;58.42;98261.22;5059099;28;20028;-91
2022/10/20 12:30:06;;;;;;;5.00;4.35;;;;;;;17.49;55.63;98248.59;5051049;28;20397;-90
2022/10/20 12:32:57;;;;;;;5.78;4.40;;;;;;;17.48;56.25;98244.34;5030012;28;20037;-92
2022/10/20 12:35:23;;;;;;;7.28;4.95;;;;;;;17.29;56.30;98241.09;5033430;28;20033;-90